sensor_id;sensor_type;location;lat;lon;timestamp;P1;durP1;ratioP1;P2;durP2;ratioP2
31384;SDS011;18016;49.788;8.742;2023-04-10T00:01:31;14.18;;;9.00;;
31384;SDS011;18016;49.788;8.742;2023-04-10T00:03:59;17.48;;;8.75;;
31384;SDS011;18016;49.788;8.742;2023-04-10T00:06:24;13.93;;;8.97;;
31384;SDS011;18016;49.788;8.742;2023-04-10T00:08:51;12.85;;;8.95;;
31384;SDS011;18016;49.788;8.742;2023-04-10T00:11:17;14.77;;;8.00;;
31384;SDS011;18016;49.788;8.742;2023-04-10T00:13:42;13.13;;;8.37;;
31384;SDS011;18016;49.788;8.742;2023-04-10T00:16:07;12.20;;;8.30;;
31384;SDS011;18016;49.788;8.742;2023-04-10T00:18:32;13.20;;;8.82;;
31384;SDS011;18016;49.788;8.742;2023-04-10T00:20:57;17.50;;;9.37;;
31384;SDS011;18016;49.788;8.742;2023-04-10T00:23:23;14.20;;;9.27;;
31384;SDS011;18016;49.788;8.742;2023-04-10T00:25:48;15.27;;;9.45;;
31384;SDS011;18016;49.788;8.742;2023-04-10T00:28:13;14.23;;;9.30;;
31384;SDS011;18016;49.788;8.742;2023-04-10T00:30:39;12.70;;;9.30;;
31384;SDS011;18016;49.788;8.742;2023-04-10T00:33:04;17.40;;;9.43;;
31384;SDS011;18016;49.788;8.742;2023-04-10T00:35:29;17.60;;;9.33;;
31384;SDS011;18016;49.788;8.742;2023-04-10T00:37:55;15.05;;;9.68;;
31384;SDS011;18016;49.788;8.742;2023-04-10T00:40:21;15.52;;;9.98;;
31384;SDS011;18016;49.788;8.742;2023-04-10T00:42:46;15.55;;;9.57;;
31384;SDS011;18016;49.788;8.742;2023-04-10T00:45:12;15.57;;;10.23;;
31384;SDS011;18016;49.788;8.742;2023-04-10T00:47:37;14.17;;;9.77;;
31384;SDS011;18016;49.788;8.742;2023-04-10T00:50:03;17.73;;;9.98;;
31384;SDS011;18016;49.788;8.742;2023-04-10T00:52:28;16.17;;;10.18;;
31384;SDS011;18016;49.788;8.742;2023-04-10T00:54:53;21.05;;;12.15;;
31384;SDS011;18016;49.788;8.742;2023-04-10T00:57:19;22.83;;;13.00;;
31384;SDS011;18016;49.788;8.742;2023-04-10T00:59:44;31.45;;;14.32;;
31384;SDS011;18016;49.788;8.742;2023-04-10T01:02:09;26.10;;;13.60;;
31384;SDS011;18016;49.788;8.742;2023-04-10T01:04:37;33.03;;;15.20;;
31384;SDS011;18016;49.788;8.742;2023-04-10T01:09:31;25.07;;;13.40;;
31384;SDS011;18016;49.788;8.742;2023-04-10T01:11:59;26.05;;;13.13;;
31384;SDS011;18016;49.788;8.742;2023-04-10T01:14:27;20.77;;;12.43;;
31384;SDS011;18016;49.788;8.742;2023-04-10T01:19:37;21.38;;;11.30;;
31384;SDS011;18016;49.788;8.742;2023-04-10T01:22:07;20.30;;;11.60;;
31384;SDS011;18016;49.788;8.742;2023-04-10T01:24:47;19.10;;;11.60;;
31384;SDS011;18016;49.788;8.742;2023-04-10T01:29:40;19.10;;;11.43;;
31384;SDS011;18016;49.788;8.742;2023-04-10T01:32:07;17.75;;;11.52;;
31384;SDS011;18016;49.788;8.742;2023-04-10T01:34:37;20.25;;;10.98;;
31384;SDS011;18016;49.788;8.742;2023-04-10T01:37:03;18.13;;;10.15;;
31384;SDS011;18016;49.788;8.742;2023-04-10T01:39:30;18.13;;;10.40;;
31384;SDS011;18016;49.788;8.742;2023-04-10T01:41:57;18.13;;;10.20;;
31384;SDS011;18016;49.788;8.742;2023-04-10T01:44:24;18.33;;;11.27;;
31384;SDS011;18016;49.788;8.742;2023-04-10T01:46:51;18.20;;;10.65;;
31384;SDS011;18016;49.788;8.742;2023-04-10T01:49:16;19.40;;;11.50;;
31384;SDS011;18016;49.788;8.742;2023-04-10T01:51:42;21.23;;;12.02;;
31384;SDS011;18016;49.788;8.742;2023-04-10T01:54:08;18.40;;;10.95;;
31384;SDS011;18016;49.788;8.742;2023-04-10T01:56:33;15.07;;;10.65;;
31384;SDS011;18016;49.788;8.742;2023-04-10T01:58:58;17.02;;;10.50;;
31384;SDS011;18016;49.788;8.742;2023-04-10T02:01:24;22.20;;;10.47;;
31384;SDS011;18016;49.788;8.742;2023-04-10T02:03:49;17.25;;;10.55;;
31384;SDS011;18016;49.788;8.742;2023-04-10T02:08:41;18.15;;;10.27;;
31384;SDS011;18016;49.788;8.742;2023-04-10T02:13:51;20.25;;;10.80;;
31384;SDS011;18016;49.788;8.742;2023-04-10T02:16:18;17.77;;;11.32;;
31384;SDS011;18016;49.788;8.742;2023-04-10T02:18:43;18.35;;;10.35;;
31384;SDS011;18016;49.788;8.742;2023-04-10T02:21:10;24.17;;;11.70;;
31384;SDS011;18016;49.788;8.742;2023-04-10T02:23:35;15.45;;;10.13;;
31384;SDS011;18016;49.788;8.742;2023-04-10T02:26:04;15.85;;;9.90;;
31384;SDS011;18016;49.788;8.742;2023-04-10T02:28:30;19.75;;;11.43;;
31384;SDS011;18016;49.788;8.742;2023-04-10T02:30:55;18.00;;;10.60;;
31384;SDS011;18016;49.788;8.742;2023-04-10T02:33:20;16.40;;;10.83;;
31384;SDS011;18016;49.788;8.742;2023-04-10T02:35:45;20.87;;;11.30;;
31384;SDS011;18016;49.788;8.742;2023-04-10T02:38:10;16.30;;;10.47;;
31384;SDS011;18016;49.788;8.742;2023-04-10T02:40:35;18.77;;;11.13;;
31384;SDS011;18016;49.788;8.742;2023-04-10T02:43:01;15.90;;;10.17;;
31384;SDS011;18016;49.788;8.742;2023-04-10T02:45:26;19.97;;;9.73;;
31384;SDS011;18016;49.788;8.742;2023-04-10T02:47:51;14.80;;;9.53;;
31384;SDS011;18016;49.788;8.742;2023-04-10T02:50:16;16.30;;;10.63;;
31384;SDS011;18016;49.788;8.742;2023-04-10T02:52:42;14.98;;;10.00;;
31384;SDS011;18016;49.788;8.742;2023-04-10T02:55:07;15.97;;;9.70;;
31384;SDS011;18016;49.788;8.742;2023-04-10T02:57:33;13.88;;;9.93;;
31384;SDS011;18016;49.788;8.742;2023-04-10T02:59:58;16.35;;;9.82;;
31384;SDS011;18016;49.788;8.742;2023-04-10T03:02:23;13.97;;;9.60;;
31384;SDS011;18016;49.788;8.742;2023-04-10T03:04:48;15.77;;;9.83;;
31384;SDS011;18016;49.788;8.742;2023-04-10T03:07:14;20.38;;;11.80;;
31384;SDS011;18016;49.788;8.742;2023-04-10T03:09:41;16.52;;;10.65;;
31384;SDS011;18016;49.788;8.742;2023-04-10T03:12:06;16.07;;;9.53;;
31384;SDS011;18016;49.788;8.742;2023-04-10T03:14:31;18.73;;;11.47;;
31384;SDS011;18016;49.788;8.742;2023-04-10T03:16:56;15.83;;;9.77;;
31384;SDS011;18016;49.788;8.742;2023-04-10T03:19:21;15.20;;;9.70;;
31384;SDS011;18016;49.788;8.742;2023-04-10T03:21:47;15.30;;;9.65;;
31384;SDS011;18016;49.788;8.742;2023-04-10T03:24:12;15.00;;;8.37;;
31384;SDS011;18016;49.788;8.742;2023-04-10T03:26:37;14.83;;;9.20;;
31384;SDS011;18016;49.788;8.742;2023-04-10T03:29:02;16.37;;;10.67;;
31384;SDS011;18016;49.788;8.742;2023-04-10T03:31:27;16.35;;;10.60;;
31384;SDS011;18016;49.788;8.742;2023-04-10T03:33:52;13.63;;;9.52;;
31384;SDS011;18016;49.788;8.742;2023-04-10T03:36:18;14.93;;;9.80;;
31384;SDS011;18016;49.788;8.742;2023-04-10T03:38:43;14.93;;;9.77;;
31384;SDS011;18016;49.788;8.742;2023-04-10T03:41:08;14.57;;;9.10;;
31384;SDS011;18016;49.788;8.742;2023-04-10T03:43:34;15.88;;;9.27;;
31384;SDS011;18016;49.788;8.742;2023-04-10T03:45:59;18.88;;;10.45;;
31384;SDS011;18016;49.788;8.742;2023-04-10T03:48:25;24.35;;;10.07;;
31384;SDS011;18016;49.788;8.742;2023-04-10T03:50:52;14.10;;;9.45;;
31384;SDS011;18016;49.788;8.742;2023-04-10T03:53:17;16.52;;;9.32;;
31384;SDS011;18016;49.788;8.742;2023-04-10T03:55:42;15.02;;;9.50;;
31384;SDS011;18016;49.788;8.742;2023-04-10T03:58:07;15.43;;;9.80;;
31384;SDS011;18016;49.788;8.742;2023-04-10T04:00:33;19.92;;;10.23;;
31384;SDS011;18016;49.788;8.742;2023-04-10T04:02:58;15.77;;;9.52;;
31384;SDS011;18016;49.788;8.742;2023-04-10T04:05:25;19.33;;;10.45;;
31384;SDS011;18016;49.788;8.742;2023-04-10T04:07:50;15.20;;;9.93;;
31384;SDS011;18016;49.788;8.742;2023-04-10T04:10:16;16.40;;;10.38;;
31384;SDS011;18016;49.788;8.742;2023-04-10T04:12:41;19.08;;;9.93;;
31384;SDS011;18016;49.788;8.742;2023-04-10T04:15:06;17.63;;;11.03;;
31384;SDS011;18016;49.788;8.742;2023-04-10T04:17:32;15.52;;;9.98;;
31384;SDS011;18016;49.788;8.742;2023-04-10T04:19:57;16.88;;;10.18;;
31384;SDS011;18016;49.788;8.742;2023-04-10T04:22:22;17.33;;;9.77;;
31384;SDS011;18016;49.788;8.742;2023-04-10T04:24:47;16.37;;;9.87;;
31384;SDS011;18016;49.788;8.742;2023-04-10T04:27:12;14.70;;;9.23;;
31384;SDS011;18016;49.788;8.742;2023-04-10T04:29:37;14.70;;;9.20;;
31384;SDS011;18016;49.788;8.742;2023-04-10T04:32:03;16.02;;;9.73;;
31384;SDS011;18016;49.788;8.742;2023-04-10T04:34:28;18.50;;;9.98;;
31384;SDS011;18016;49.788;8.742;2023-04-10T04:36:53;17.10;;;9.60;;
31384;SDS011;18016;49.788;8.742;2023-04-10T04:39:18;14.83;;;9.93;;
31384;SDS011;18016;49.788;8.742;2023-04-10T04:41:44;17.83;;;10.32;;
31384;SDS011;18016;49.788;8.742;2023-04-10T04:44:09;14.40;;;9.37;;
31384;SDS011;18016;49.788;8.742;2023-04-10T04:46:34;20.27;;;10.52;;
31384;SDS011;18016;49.788;8.742;2023-04-10T04:49:00;14.23;;;9.30;;
31384;SDS011;18016;49.788;8.742;2023-04-10T04:51:25;15.50;;;9.70;;
31384;SDS011;18016;49.788;8.742;2023-04-10T04:53:51;18.35;;;10.05;;
31384;SDS011;18016;49.788;8.742;2023-04-10T04:56:16;15.30;;;9.77;;
31384;SDS011;18016;49.788;8.742;2023-04-10T04:58:41;15.85;;;10.25;;
31384;SDS011;18016;49.788;8.742;2023-04-10T05:01:06;14.50;;;9.55;;
31384;SDS011;18016;49.788;8.742;2023-04-10T05:03:32;13.52;;;8.93;;
31384;SDS011;18016;49.788;8.742;2023-04-10T05:05:57;14.95;;;9.95;;
31384;SDS011;18016;49.788;8.742;2023-04-10T05:08:22;15.50;;;9.82;;
31384;SDS011;18016;49.788;8.742;2023-04-10T05:10:47;16.00;;;9.88;;
31384;SDS011;18016;49.788;8.742;2023-04-10T05:13:13;13.38;;;9.35;;
31384;SDS011;18016;49.788;8.742;2023-04-10T05:15:41;16.02;;;9.05;;
31384;SDS011;18016;49.788;8.742;2023-04-10T05:18:06;13.73;;;9.43;;
31384;SDS011;18016;49.788;8.742;2023-04-10T05:20:33;15.80;;;10.23;;
31384;SDS011;18016;49.788;8.742;2023-04-10T05:22:58;12.25;;;8.63;;
31384;SDS011;18016;49.788;8.742;2023-04-10T05:25:23;12.55;;;9.57;;
31384;SDS011;18016;49.788;8.742;2023-04-10T05:27:48;13.82;;;9.35;;
31384;SDS011;18016;49.788;8.742;2023-04-10T05:30:14;13.20;;;9.00;;
31384;SDS011;18016;49.788;8.742;2023-04-10T05:32:39;12.53;;;9.20;;
31384;SDS011;18016;49.788;8.742;2023-04-10T05:35:04;13.82;;;8.68;;
31384;SDS011;18016;49.788;8.742;2023-04-10T05:37:30;12.55;;;8.80;;
31384;SDS011;18016;49.788;8.742;2023-04-10T05:39:55;14.13;;;8.50;;
31384;SDS011;18016;49.788;8.742;2023-04-10T05:42:20;12.17;;;7.93;;
31384;SDS011;18016;49.788;8.742;2023-04-10T05:44:45;12.80;;;8.70;;
31384;SDS011;18016;49.788;8.742;2023-04-10T05:47:10;12.40;;;8.43;;
31384;SDS011;18016;49.788;8.742;2023-04-10T05:49:35;14.23;;;8.33;;
31384;SDS011;18016;49.788;8.742;2023-04-10T05:52:01;12.23;;;8.20;;
31384;SDS011;18016;49.788;8.742;2023-04-10T05:54:26;13.80;;;9.13;;
31384;SDS011;18016;49.788;8.742;2023-04-10T05:56:51;14.07;;;8.30;;
31384;SDS011;18016;49.788;8.742;2023-04-10T05:59:16;10.87;;;8.00;;
31384;SDS011;18016;49.788;8.742;2023-04-10T06:01:42;12.43;;;8.50;;
31384;SDS011;18016;49.788;8.742;2023-04-10T06:04:08;12.48;;;8.98;;
31384;SDS011;18016;49.788;8.742;2023-04-10T06:06:33;10.73;;;7.83;;
31384;SDS011;18016;49.788;8.742;2023-04-10T06:08:58;15.33;;;8.97;;
31384;SDS011;18016;49.788;8.742;2023-04-10T06:11:23;16.20;;;10.47;;
31384;SDS011;18016;49.788;8.742;2023-04-10T06:13:48;14.15;;;9.85;;
31384;SDS011;18016;49.788;8.742;2023-04-10T06:16:13;14.27;;;9.93;;
31384;SDS011;18016;49.788;8.742;2023-04-10T06:18:40;13.32;;;9.95;;
31384;SDS011;18016;49.788;8.742;2023-04-10T06:21:05;14.52;;;8.35;;
31384;SDS011;18016;49.788;8.742;2023-04-10T06:23:31;13.80;;;8.75;;
31384;SDS011;18016;49.788;8.742;2023-04-10T06:25:56;13.77;;;9.63;;
31384;SDS011;18016;49.788;8.742;2023-04-10T06:28:21;15.50;;;11.60;;
31384;SDS011;18016;49.788;8.742;2023-04-10T06:30:46;14.37;;;10.67;;
31384;SDS011;18016;49.788;8.742;2023-04-10T06:33:11;17.60;;;11.43;;
31384;SDS011;18016;49.788;8.742;2023-04-10T06:35:36;15.33;;;11.17;;
31384;SDS011;18016;49.788;8.742;2023-04-10T06:38:02;15.20;;;11.15;;
31384;SDS011;18016;49.788;8.742;2023-04-10T06:40:27;13.13;;;9.88;;
31384;SDS011;18016;49.788;8.742;2023-04-10T06:42:53;11.95;;;8.95;;
31384;SDS011;18016;49.788;8.742;2023-04-10T06:45:18;12.23;;;9.18;;
31384;SDS011;18016;49.788;8.742;2023-04-10T06:47:43;9.90;;;8.32;;
31384;SDS011;18016;49.788;8.742;2023-04-10T06:50:09;13.55;;;8.75;;
31384;SDS011;18016;49.788;8.742;2023-04-10T06:52:34;14.95;;;9.25;;
31384;SDS011;18016;49.788;8.742;2023-04-10T06:54:59;13.23;;;9.00;;
31384;SDS011;18016;49.788;8.742;2023-04-10T06:57:24;11.03;;;8.20;;
31384;SDS011;18016;49.788;8.742;2023-04-10T06:59:50;12.60;;;9.10;;
31384;SDS011;18016;49.788;8.742;2023-04-10T07:02:15;12.98;;;9.93;;
31384;SDS011;18016;49.788;8.742;2023-04-10T07:04:40;11.80;;;8.53;;
31384;SDS011;18016;49.788;8.742;2023-04-10T07:07:06;11.07;;;8.07;;
31384;SDS011;18016;49.788;8.742;2023-04-10T07:09:33;15.02;;;11.15;;
31384;SDS011;18016;49.788;8.742;2023-04-10T07:11:58;23.53;;;17.30;;
31384;SDS011;18016;49.788;8.742;2023-04-10T07:14:24;14.75;;;9.05;;
31384;SDS011;18016;49.788;8.742;2023-04-10T07:16:49;12.07;;;8.07;;
31384;SDS011;18016;49.788;8.742;2023-04-10T07:19:15;8.20;;;6.90;;
31384;SDS011;18016;49.788;8.742;2023-04-10T07:21:40;11.97;;;9.73;;
31384;SDS011;18016;49.788;8.742;2023-04-10T07:24:05;8.70;;;7.10;;
31384;SDS011;18016;49.788;8.742;2023-04-10T07:26:31;9.15;;;7.07;;
31384;SDS011;18016;49.788;8.742;2023-04-10T07:28:56;9.57;;;7.73;;
31384;SDS011;18016;49.788;8.742;2023-04-10T07:31:21;9.00;;;7.37;;
31384;SDS011;18016;49.788;8.742;2023-04-10T07:33:46;7.90;;;6.90;;
31384;SDS011;18016;49.788;8.742;2023-04-10T07:36:11;11.75;;;10.25;;
31384;SDS011;18016;49.788;8.742;2023-04-10T07:38:37;10.00;;;8.25;;
31384;SDS011;18016;49.788;8.742;2023-04-10T07:41:02;8.48;;;7.43;;
31384;SDS011;18016;49.788;8.742;2023-04-10T07:43:28;8.60;;;7.13;;
31384;SDS011;18016;49.788;8.742;2023-04-10T07:45:54;11.73;;;7.07;;
31384;SDS011;18016;49.788;8.742;2023-04-10T07:48:19;13.38;;;8.20;;
31384;SDS011;18016;49.788;8.742;2023-04-10T07:50:44;8.40;;;7.30;;
31384;SDS011;18016;49.788;8.742;2023-04-10T07:53:10;8.68;;;6.78;;
31384;SDS011;18016;49.788;8.742;2023-04-10T07:55:38;8.43;;;6.93;;
31384;SDS011;18016;49.788;8.742;2023-04-10T07:58:04;7.78;;;6.97;;
31384;SDS011;18016;49.788;8.742;2023-04-10T08:00:30;7.28;;;5.88;;
31384;SDS011;18016;49.788;8.742;2023-04-10T08:02:55;8.10;;;6.57;;
31384;SDS011;18016;49.788;8.742;2023-04-10T08:05:20;10.17;;;7.53;;
31384;SDS011;18016;49.788;8.742;2023-04-10T08:07:45;8.38;;;6.40;;
31384;SDS011;18016;49.788;8.742;2023-04-10T08:10:11;7.77;;;6.97;;
31384;SDS011;18016;49.788;8.742;2023-04-10T08:12:36;7.03;;;6.10;;
31384;SDS011;18016;49.788;8.742;2023-04-10T08:15:01;7.33;;;6.37;;
31384;SDS011;18016;49.788;8.742;2023-04-10T08:17:26;6.78;;;5.45;;
31384;SDS011;18016;49.788;8.742;2023-04-10T08:19:51;9.70;;;6.30;;
31384;SDS011;18016;49.788;8.742;2023-04-10T08:22:16;6.77;;;5.87;;
31384;SDS011;18016;49.788;8.742;2023-04-10T08:24:42;6.20;;;5.40;;
31384;SDS011;18016;49.788;8.742;2023-04-10T08:27:07;6.87;;;5.00;;
31384;SDS011;18016;49.788;8.742;2023-04-10T08:29:32;7.03;;;6.10;;
31384;SDS011;18016;49.788;8.742;2023-04-10T08:31:57;8.23;;;5.97;;
31384;SDS011;18016;49.788;8.742;2023-04-10T08:34:24;6.63;;;4.80;;
31384;SDS011;18016;49.788;8.742;2023-04-10T08:36:50;16.97;;;11.10;;
31384;SDS011;18016;49.788;8.742;2023-04-10T08:39:15;7.63;;;5.90;;
31384;SDS011;18016;49.788;8.742;2023-04-10T08:41:40;7.53;;;5.30;;
31384;SDS011;18016;49.788;8.742;2023-04-10T08:44:05;6.50;;;5.47;;
31384;SDS011;18016;49.788;8.742;2023-04-10T08:46:30;6.43;;;5.72;;
31384;SDS011;18016;49.788;8.742;2023-04-10T08:49:02;5.57;;;4.68;;
31384;SDS011;18016;49.788;8.742;2023-04-10T08:51:30;6.28;;;4.88;;
31384;SDS011;18016;49.788;8.742;2023-04-10T08:53:57;7.30;;;5.20;;
31384;SDS011;18016;49.788;8.742;2023-04-10T08:56:22;5.40;;;4.90;;
31384;SDS011;18016;49.788;8.742;2023-04-10T08:58:48;5.45;;;4.45;;
31384;SDS011;18016;49.788;8.742;2023-04-10T09:01:15;6.10;;;4.68;;
31384;SDS011;18016;49.788;8.742;2023-04-10T09:03:40;7.70;;;5.23;;
31384;SDS011;18016;49.788;8.742;2023-04-10T09:06:05;7.07;;;4.60;;
31384;SDS011;18016;49.788;8.742;2023-04-10T09:08:31;5.00;;;4.50;;
31384;SDS011;18016;49.788;8.742;2023-04-10T09:10:56;5.47;;;4.13;;
31384;SDS011;18016;49.788;8.742;2023-04-10T09:13:38;4.50;;;4.10;;
31384;SDS011;18016;49.788;8.742;2023-04-10T09:16:03;4.72;;;4.28;;
31384;SDS011;18016;49.788;8.742;2023-04-10T09:18:45;3.63;;;3.33;;
31384;SDS011;18016;49.788;8.742;2023-04-10T09:21:12;4.15;;;3.75;;
31384;SDS011;18016;49.788;8.742;2023-04-10T09:23:37;5.25;;;3.95;;
31384;SDS011;18016;49.788;8.742;2023-04-10T09:26:05;4.00;;;3.57;;
31384;SDS011;18016;49.788;8.742;2023-04-10T09:28:30;6.28;;;4.03;;
31384;SDS011;18016;49.788;8.742;2023-04-10T09:30:56;5.15;;;3.60;;
31384;SDS011;18016;49.788;8.742;2023-04-10T09:33:25;3.67;;;3.37;;
31384;SDS011;18016;49.788;8.742;2023-04-10T09:35:56;3.95;;;3.58;;
31384;SDS011;18016;49.788;8.742;2023-04-10T09:38:21;4.10;;;3.70;;
31384;SDS011;18016;49.788;8.742;2023-04-10T09:40:47;3.65;;;3.35;;
31384;SDS011;18016;49.788;8.742;2023-04-10T09:43:16;4.05;;;3.20;;
31384;SDS011;18016;49.788;8.742;2023-04-10T09:45:45;3.47;;;3.17;;
31384;SDS011;18016;49.788;8.742;2023-04-10T09:48:11;3.60;;;3.30;;
31384;SDS011;18016;49.788;8.742;2023-04-10T09:50:36;3.23;;;2.93;;
31384;SDS011;18016;49.788;8.742;2023-04-10T09:53:03;3.35;;;3.05;;
31384;SDS011;18016;49.788;8.742;2023-04-10T09:55:28;3.27;;;2.97;;
31384;SDS011;18016;49.788;8.742;2023-04-10T09:57:53;7.07;;;3.17;;
31384;SDS011;18016;49.788;8.742;2023-04-10T10:00:19;3.42;;;3.13;;
31384;SDS011;18016;49.788;8.742;2023-04-10T10:02:44;4.93;;;3.20;;
31384;SDS011;18016;49.788;8.742;2023-04-10T10:05:09;4.55;;;2.95;;
31384;SDS011;18016;49.788;8.742;2023-04-10T10:07:35;4.07;;;2.60;;
31384;SDS011;18016;49.788;8.742;2023-04-10T10:10:01;2.65;;;2.45;;
31384;SDS011;18016;49.788;8.742;2023-04-10T10:12:43;2.55;;;2.35;;
31384;SDS011;18016;49.788;8.742;2023-04-10T10:15:24;4.47;;;2.70;;
31384;SDS011;18016;49.788;8.742;2023-04-10T10:17:58;7.30;;;2.72;;
31384;SDS011;18016;49.788;8.742;2023-04-10T10:20:24;7.40;;;2.38;;
31384;SDS011;18016;49.788;8.742;2023-04-10T10:22:50;2.70;;;2.50;;
31384;SDS011;18016;49.788;8.742;2023-04-10T10:25:17;2.53;;;2.33;;
31384;SDS011;18016;49.788;8.742;2023-04-10T10:27:43;6.55;;;2.72;;
31384;SDS011;18016;49.788;8.742;2023-04-10T10:30:08;4.43;;;4.03;;
31384;SDS011;18016;49.788;8.742;2023-04-10T10:32:36;3.40;;;3.10;;
31384;SDS011;18016;49.788;8.742;2023-04-10T10:35:01;9.20;;;6.70;;
31384;SDS011;18016;49.788;8.742;2023-04-10T10:37:28;5.80;;;4.55;;
31384;SDS011;18016;49.788;8.742;2023-04-10T10:39:58;6.63;;;5.07;;
31384;SDS011;18016;49.788;8.742;2023-04-10T10:42:33;8.43;;;5.95;;
31384;SDS011;18016;49.788;8.742;2023-04-10T10:45:16;4.38;;;3.58;;
31384;SDS011;18016;49.788;8.742;2023-04-10T10:48:00;39.55;;;21.02;;
31384;SDS011;18016;49.788;8.742;2023-04-10T10:50:47;4.45;;;3.10;;
31384;SDS011;18016;49.788;8.742;2023-04-10T10:53:21;7.23;;;5.23;;
31384;SDS011;18016;49.788;8.742;2023-04-10T10:55:54;3.40;;;3.10;;
31384;SDS011;18016;49.788;8.742;2023-04-10T10:58:19;7.22;;;5.30;;
31384;SDS011;18016;49.788;8.742;2023-04-10T11:01:05;3.40;;;3.10;;
31384;SDS011;18016;49.788;8.742;2023-04-10T11:03:30;3.50;;;3.20;;
31384;SDS011;18016;49.788;8.742;2023-04-10T11:11:05;5.03;;;4.00;;
31384;SDS011;18016;49.788;8.742;2023-04-10T11:13:31;3.40;;;2.80;;
31384;SDS011;18016;49.788;8.742;2023-04-10T11:15:57;9.95;;;5.55;;
31384;SDS011;18016;49.788;8.742;2023-04-10T11:21:18;6.18;;;4.53;;
31384;SDS011;18016;49.788;8.742;2023-04-10T11:29:49;3.30;;;3.00;;
31384;SDS011;18016;49.788;8.742;2023-04-10T11:34:20;3.20;;;2.90;;
31384;SDS011;18016;49.788;8.742;2023-04-10T11:36:46;4.00;;;3.60;;
31384;SDS011;18016;49.788;8.742;2023-04-10T11:39:14;13.55;;;8.70;;
31384;SDS011;18016;49.788;8.742;2023-04-10T11:41:43;4.97;;;3.80;;
31384;SDS011;18016;49.788;8.742;2023-04-10T11:44:15;10.73;;;4.80;;
31384;SDS011;18016;49.788;8.742;2023-04-10T11:46:41;3.10;;;2.80;;
31384;SDS011;18016;49.788;8.742;2023-04-10T11:49:08;6.00;;;4.07;;
31384;SDS011;18016;49.788;8.742;2023-04-10T11:51:37;2.92;;;2.63;;
31384;SDS011;18016;49.788;8.742;2023-04-10T11:54:03;3.67;;;3.00;;
31384;SDS011;18016;49.788;8.742;2023-04-10T11:56:28;2.75;;;2.50;;
31384;SDS011;18016;49.788;8.742;2023-04-10T11:58:54;7.28;;;4.85;;
31384;SDS011;18016;49.788;8.742;2023-04-10T12:01:20;3.83;;;3.53;;
31384;SDS011;18016;49.788;8.742;2023-04-10T12:03:45;3.05;;;2.70;;
31384;SDS011;18016;49.788;8.742;2023-04-10T12:06:11;2.40;;;2.20;;
31384;SDS011;18016;49.788;8.742;2023-04-10T12:08:37;2.70;;;2.40;;
31384;SDS011;18016;49.788;8.742;2023-04-10T12:11:03;2.33;;;2.13;;
31384;SDS011;18016;49.788;8.742;2023-04-10T12:13:29;2.60;;;2.40;;
31384;SDS011;18016;49.788;8.742;2023-04-10T12:15:59;2.20;;;2.00;;
31384;SDS011;18016;49.788;8.742;2023-04-10T12:18:25;3.10;;;2.90;;
31384;SDS011;18016;49.788;8.742;2023-04-10T12:20:52;2.78;;;2.58;;
31384;SDS011;18016;49.788;8.742;2023-04-10T12:23:20;2.72;;;2.53;;
31384;SDS011;18016;49.788;8.742;2023-04-10T12:25:45;3.10;;;2.80;;
31384;SDS011;18016;49.788;8.742;2023-04-10T12:28:15;3.03;;;2.50;;
31384;SDS011;18016;49.788;8.742;2023-04-10T12:30:47;3.90;;;3.50;;
31384;SDS011;18016;49.788;8.742;2023-04-10T12:33:13;3.30;;;3.00;;
31384;SDS011;18016;49.788;8.742;2023-04-10T12:35:38;3.33;;;3.03;;
31384;SDS011;18016;49.788;8.742;2023-04-10T12:38:03;2.60;;;2.38;;
31384;SDS011;18016;49.788;8.742;2023-04-10T12:40:29;2.55;;;2.35;;
31384;SDS011;18016;49.788;8.742;2023-04-10T12:42:54;2.65;;;2.45;;
31384;SDS011;18016;49.788;8.742;2023-04-10T12:45:20;2.70;;;2.50;;
31384;SDS011;18016;49.788;8.742;2023-04-10T12:47:46;2.92;;;2.15;;
31384;SDS011;18016;49.788;8.742;2023-04-10T12:50:13;2.83;;;2.50;;
31384;SDS011;18016;49.788;8.742;2023-04-10T12:52:39;2.58;;;2.33;;
31384;SDS011;18016;49.788;8.742;2023-04-10T12:55:12;4.55;;;2.70;;
31384;SDS011;18016;49.788;8.742;2023-04-10T12:57:38;3.10;;;2.40;;
31384;SDS011;18016;49.788;8.742;2023-04-10T13:00:04;2.42;;;2.22;;
31384;SDS011;18016;49.788;8.742;2023-04-10T13:02:30;2.60;;;2.40;;
31384;SDS011;18016;49.788;8.742;2023-04-10T13:04:55;2.30;;;2.10;;
31384;SDS011;18016;49.788;8.742;2023-04-10T13:07:20;2.60;;;2.40;;
31384;SDS011;18016;49.788;8.742;2023-04-10T13:09:45;6.30;;;2.27;;
31384;SDS011;18016;49.788;8.742;2023-04-10T13:12:11;3.53;;;2.20;;
31384;SDS011;18016;49.788;8.742;2023-04-10T13:14:36;3.85;;;2.20;;
31384;SDS011;18016;49.788;8.742;2023-04-10T13:17:02;2.43;;;2.23;;
31384;SDS011;18016;49.788;8.742;2023-04-10T13:19:27;2.40;;;2.20;;
31384;SDS011;18016;49.788;8.742;2023-04-10T13:21:52;2.57;;;2.37;;
31384;SDS011;18016;49.788;8.742;2023-04-10T13:24:17;1.90;;;1.80;;
31384;SDS011;18016;49.788;8.742;2023-04-10T13:26:42;5.57;;;2.30;;
31384;SDS011;18016;49.788;8.742;2023-04-10T13:29:08;3.67;;;1.85;;
31384;SDS011;18016;49.788;8.742;2023-04-10T13:31:33;2.10;;;1.90;;
31384;SDS011;18016;49.788;8.742;2023-04-10T13:33:58;4.30;;;1.80;;
31384;SDS011;18016;49.788;8.742;2023-04-10T13:36:24;3.85;;;2.13;;
31384;SDS011;18016;49.788;8.742;2023-04-10T13:38:50;4.32;;;2.00;;
31384;SDS011;18016;49.788;8.742;2023-04-10T13:41:15;3.23;;;2.07;;
31384;SDS011;18016;49.788;8.742;2023-04-10T13:43:41;4.13;;;1.80;;
31384;SDS011;18016;49.788;8.742;2023-04-10T13:46:06;1.87;;;1.67;;
31384;SDS011;18016;49.788;8.742;2023-04-10T13:48:31;4.87;;;1.87;;
31384;SDS011;18016;49.788;8.742;2023-04-10T13:50:56;5.60;;;2.33;;
31384;SDS011;18016;49.788;8.742;2023-04-10T13:53:22;5.97;;;1.60;;
31384;SDS011;18016;49.788;8.742;2023-04-10T13:55:47;2.95;;;1.67;;
31384;SDS011;18016;49.788;8.742;2023-04-10T13:58:14;1.80;;;1.70;;
31384;SDS011;18016;49.788;8.742;2023-04-10T14:00:41;2.10;;;1.70;;
31384;SDS011;18016;49.788;8.742;2023-04-10T14:03:07;2.83;;;1.73;;
31384;SDS011;18016;49.788;8.742;2023-04-10T14:05:34;1.77;;;1.67;;
31384;SDS011;18016;49.788;8.742;2023-04-10T14:07:59;4.95;;;1.50;;
31384;SDS011;18016;49.788;8.742;2023-04-10T14:10:24;2.28;;;1.92;;
31384;SDS011;18016;49.788;8.742;2023-04-10T14:12:50;4.05;;;1.90;;
31384;SDS011;18016;49.788;8.742;2023-04-10T14:15:15;1.80;;;1.70;;
31384;SDS011;18016;49.788;8.742;2023-04-10T14:17:40;3.50;;;1.70;;
31384;SDS011;18016;49.788;8.742;2023-04-10T14:20:06;2.15;;;1.95;;
31384;SDS011;18016;49.788;8.742;2023-04-10T14:22:31;2.22;;;1.90;;
31384;SDS011;18016;49.788;8.742;2023-04-10T14:24:56;8.43;;;1.90;;
31384;SDS011;18016;49.788;8.742;2023-04-10T14:27:21;2.80;;;1.90;;
31384;SDS011;18016;49.788;8.742;2023-04-10T14:29:47;1.80;;;1.70;;
31384;SDS011;18016;49.788;8.742;2023-04-10T14:32:12;2.10;;;1.90;;
31384;SDS011;18016;49.788;8.742;2023-04-10T14:34:37;4.80;;;2.17;;
31384;SDS011;18016;49.788;8.742;2023-04-10T14:37:02;1.77;;;1.67;;
31384;SDS011;18016;49.788;8.742;2023-04-10T14:39:28;5.07;;;1.88;;
31384;SDS011;18016;49.788;8.742;2023-04-10T14:41:53;5.27;;;1.53;;
31384;SDS011;18016;49.788;8.742;2023-04-10T14:44:18;2.27;;;1.60;;
31384;SDS011;18016;49.788;8.742;2023-04-10T14:46:43;2.00;;;1.80;;
31384;SDS011;18016;49.788;8.742;2023-04-10T14:49:09;2.20;;;1.70;;
31384;SDS011;18016;49.788;8.742;2023-04-10T14:51:35;1.60;;;1.50;;
31384;SDS011;18016;49.788;8.742;2023-04-10T14:54:01;2.97;;;1.90;;
31384;SDS011;18016;49.788;8.742;2023-04-10T14:56:28;4.35;;;1.80;;
31384;SDS011;18016;49.788;8.742;2023-04-10T14:58:53;2.50;;;1.85;;
31384;SDS011;18016;49.788;8.742;2023-04-10T15:01:18;2.23;;;1.73;;